Time;durP1;ratioP1;P1;durP2;ratioP2;P2;SDS_P1;SDS_P2;PMS_P1;PMS_P2;Temp;Humidity;BMP_temperature;BMP_pressure;BME280_temperature;BME280_humidity;BME280_pressure;Samples;Min_cycle;Max_cycle;Signal;HPM_P1;HPM_P2
2023/05/24 00:02:25;;;;;;;21.25;12.20;;;13.80;99.90;;;;;;4995175;28;20030;-63
2023/05/24 00:04:52;;;;;;;16.13;11.55;;;13.70;99.90;;;;;;4995505;28;20535;-63
2023/05/24 00:07:18;;;;;;;24.83;14.43;;;13.70;99.90;;;;;;4995467;28;20054;-63
2023/05/24 00:09:44;;;;;;;28.58;14.05;;;13.70;99.90;;;;;;4995378;28;20488;-63
2023/05/24 00:12:10;;;;;;;29.90;14.65;;;13.70;99.90;;;;;;4995169;28;20054;-63
2023/05/24 00:14:36;;;;;;;25.25;13.70;;;13.60;99.90;;;;;;4995301;28;20105;-63
2023/05/24 00:17:02;;;;;;;29.15;13.25;;;13.60;99.90;;;;;;4995350;28;20112;-63
2023/05/24 00:19:28;;;;;;;32.38;14.65;;;13.60;99.90;;;;;;4995722;28;20124;-63
2023/05/24 00:21:54;;;;;;;22.55;12.63;;;13.60;99.90;;;;;;4977897;28;20038;-63
2023/05/24 00:24:20;;;;;;;20.48;12.48;;;13.60;99.90;;;;;;4995408;28;20030;-63
2023/05/24 00:26:47;;;;;;;22.95;12.38;;;13.60;99.90;;;;;;4995067;28;20088;-63
2023/05/24 00:29:13;;;;;;;18.33;11.68;;;13.50;99.90;;;;;;4977776;28;20054;-63
2023/05/24 00:31:39;;;;;;;19.35;11.05;;;13.40;99.90;;;;;;4995130;28;20055;-63
2023/05/24 00:34:05;;;;;;;17.23;11.88;;;13.40;99.90;;;;;;4977573;28;20034;-63
2023/05/24 00:36:32;;;;;;;17.92;11.13;;;13.40;99.90;;;;;;4995155;28;20030;-63
2023/05/24 00:38:58;;;;;;;18.15;12.35;;;13.40;99.90;;;;;;4977709;28;20037;-63
2023/05/24 00:41:25;;;;;;;16.25;11.43;;;13.30;99.90;;;;;;4995044;28;20084;-63
2023/05/24 00:43:51;;;;;;;17.67;10.88;;;13.30;99.90;;;;;;4974243;28;20082;-63
2023/05/24 00:46:32;;;;;;;15.10;10.48;;;13.30;99.90;;;;;;4975539;28;20057;-63
2023/05/24 00:48:59;;;;;;;17.88;11.02;;;13.20;99.90;;;;;;4974272;28;20030;-63
2023/05/24 00:51:26;;;;;;;17.85;10.32;;;13.20;99.90;;;;;;4975748;28;20031;-62
2023/05/24 00:53:53;;;;;;;22.33;11.18;;;13.20;99.90;;;;;;4975879;28;20027;-63
2023/05/24 00:56:19;;;;;;;20.00;11.80;;;13.10;99.90;;;;;;4975545;28;20031;-63
2023/05/24 00:58:46;;;;;;;17.27;10.73;;;13.10;99.90;;;;;;4975496;28;20400;-63
2023/05/24 01:01:13;;;;;;;16.40;11.05;;;13.00;99.90;;;;;;4974232;28;20027;-63
2023/05/24 01:03:40;;;;;;;20.92;11.10;;;13.00;99.90;;;;;;4977615;28;20047;-63
2023/05/24 01:06:07;;;;;;;22.70;11.95;;;13.00;99.90;;;;;;4979452;28;20090;-63
2023/05/24 01:08:41;;;;;;;21.52;13.20;;;13.10;99.90;;;;;;4979190;28;20026;-63
2023/05/24 01:11:26;;;;;;;20.52;11.73;;;13.10;99.90;;;;;;4979174;28;20392;-63
2023/05/24 01:14:15;;;;;;;17.98;11.02;;;13.10;99.90;;;;;;4979216;28;20041;-62
2023/05/24 01:16:50;;;;;;;15.57;11.10;;;13.20;99.90;;;;;;4979152;28;20023;-62
2023/05/24 01:19:47;;;;;;;21.92;11.05;;;13.20;99.90;;;;;;4979302;28;20031;-63
2023/05/24 01:22:52;;;;;;;15.32;10.00;;;13.10;99.90;;;;;;4977828;28;20031;-63
2023/05/24 01:25:46;;;;;;;15.45;10.23;;;13.20;99.90;;;;;;4977657;28;20039;-63
2023/05/24 01:28:12;;;;;;;18.38;10.95;;;13.20;99.90;;;;;;4958422;29;20039;-63
2023/05/24 01:30:40;;;;;;;12.85;10.00;;;13.10;99.90;;;;;;4958213;29;20641;-63
2023/05/24 01:33:06;;;;;;;14.77;10.30;;;13.10;99.90;;;;;;4958324;29;20035;-63
2023/05/24 01:35:38;;;;;;;19.40;11.70;;;13.00;99.90;;;;;;4958250;29;20128;-63
2023/05/24 01:38:10;;;;;;;17.20;10.38;;;13.00;99.90;;;;;;4958101;29;20082;-63
2023/05/24 01:40:37;;;;;;;15.32;10.00;;;13.00;99.90;;;;;;4959318;29;20039;-63
2023/05/24 01:43:21;;;;;;;15.65;11.05;;;13.00;99.90;;;;;;4969655;28;20129;-62
2023/05/24 01:46:08;;;;;;;15.35;10.18;;;13.00;99.90;;;;;;4996961;28;20073;-63
2023/05/24 01:48:42;;;;;;;16.58;10.60;;;12.90;99.90;;;;;;4979985;28;20038;-63
2023/05/24 01:51:14;;;;;;;13.93;10.05;;;13.00;99.90;;;;;;4997870;28;20026;-63
2023/05/24 01:53:46;;;;;;;16.63;10.63;;;13.00;99.90;;;;;;4997944;28;20030;-62
2023/05/24 01:56:14;;;;;;;12.77;9.65;;;13.10;99.90;;;;;;4980520;28;20117;-63
2023/05/24 01:58:42;;;;;;;17.65;9.40;;;13.00;99.90;;;;;;4980298;28;20042;-62
2023/05/24 02:01:09;;;;;;;17.98;10.95;;;13.00;99.90;;;;;;4980155;28;20038;-63
2023/05/24 02:03:38;;;;;;;16.27;10.32;;;13.00;99.90;;;;;;4980144;28;20486;-62
2023/05/24 02:06:05;;;;;;;16.40;9.93;;;12.90;99.90;;;;;;4997627;28;20026;-62
2023/05/24 02:08:31;;;;;;;16.17;10.07;;;13.00;99.90;;;;;;4997579;28;20089;-63
2023/05/24 02:10:57;;;;;;;15.90;10.55;;;13.00;99.90;;;;;;4980107;28;20054;-63
2023/05/24 02:13:23;;;;;;;18.00;10.85;;;13.00;99.90;;;;;;4979354;28;20117;-62
2023/05/24 02:15:50;;;;;;;17.15;10.63;;;13.00;99.90;;;;;;4980124;28;20034;-62
2023/05/24 02:18:18;;;;;;;13.45;9.95;;;12.90;99.90;;;;;;4997461;28;20416;-62
2023/05/24 02:20:44;;;;;;;13.80;10.25;;;12.80;99.90;;;;;;4997460;28;20073;-62
2023/05/24 02:23:10;;;;;;;17.10;9.95;;;12.80;99.90;;;;;;4997344;28;20027;-62
2023/05/24 02:25:36;;;;;;;15.65;9.57;;;12.70;99.90;;;;;;4997296;28;20076;-62
2023/05/24 02:28:02;;;;;;;17.27;9.93;;;12.60;99.90;;;;;;4997266;28;20027;-63
2023/05/24 02:30:28;;;;;;;18.15;10.38;;;12.60;99.90;;;;;;4997274;28;20380;-62
2023/05/24 02:32:54;;;;;;;14.50;10.48;;;12.60;99.90;;;;;;4997172;28;20030;-62
2023/05/24 02:35:21;;;;;;;14.10;10.40;;;12.60;99.90;;;;;;4997125;28;20431;-62
2023/05/24 02:37:47;;;;;;;14.93;9.85;;;12.60;99.90;;;;;;4997229;28;20030;-62
2023/05/24 02:40:13;;;;;;;20.00;10.45;;;12.50;99.90;;;;;;4979635;28;20030;-62
2023/05/24 02:42:39;;;;;;;12.43;9.88;;;12.50;99.90;;;;;;4996871;28;20399;-62
2023/05/24 02:45:06;;;;;;;17.52;9.82;;;12.50;99.90;;;;;;4996983;28;20636;-62
2023/05/24 02:47:32;;;;;;;14.73;9.50;;;12.50;99.90;;;;;;4979410;28;20097;-62
2023/05/24 02:49:58;;;;;;;14.82;10.00;;;12.40;99.90;;;;;;4979393;28;20030;-62
2023/05/24 02:52:24;;;;;;;16.25;10.18;;;12.40;99.90;;;;;;4996998;28;20442;-62
2023/05/24 02:54:50;;;;;;;17.40;10.23;;;12.40;99.90;;;;;;4996793;28;20038;-62
2023/05/24 02:57:18;;;;;;;24.00;11.70;;;12.40;99.90;;;;;;4979195;28;20022;-62
2023/05/24 02:59:45;;;;;;;19.83;11.95;;;12.40;99.90;;;;;;4979304;28;20648;-62
2023/05/24 03:02:12;;;;;;;20.73;11.38;;;12.40;99.90;;;;;;4979213;28;20041;-62
2023/05/24 03:04:38;;;;;;;20.50;11.50;;;12.40;99.90;;;;;;4979080;28;20038;-62
2023/05/24 03:07:08;;;;;;;19.58;11.35;;;12.40;99.90;;;;;;4979257;28;20038;-62
2023/05/24 03:09:34;;;;;;;18.55;10.57;;;12.40;99.90;;;;;;4978923;28;20034;-62
2023/05/24 03:12:00;;;;;;;21.10;11.07;;;12.40;99.90;;;;;;4996459;28;20053;-62
2023/05/24 03:14:26;;;;;;;17.83;11.55;;;12.50;99.90;;;;;;4978932;28;20380;-62
2023/05/24 03:16:52;;;;;;;19.13;10.77;;;12.40;99.90;;;;;;4996448;28;20030;-62
2023/05/24 03:19:18;;;;;;;13.45;10.18;;;12.40;99.90;;;;;;4978933;28;20428;-62
2023/05/24 03:21:44;;;;;;;13.18;9.07;;;12.50;99.90;;;;;;4996367;28;20106;-62
2023/05/24 03:24:11;;;;;;;13.90;9.40;;;12.30;99.90;;;;;;4978817;28;20047;-62
2023/05/24 03:26:41;;;;;;;14.07;9.57;;;12.40;99.90;;;;;;4977762;28;20038;-62
2023/05/24 03:29:08;;;;;;;13.48;9.57;;;12.30;99.90;;;;;;4978604;28;20492;-63
2023/05/24 03:31:38;;;;;;;12.20;9.23;;;12.20;99.90;;;;;;4978689;28;20042;-62
2023/05/24 03:34:04;;;;;;;19.17;10.02;;;12.20;99.90;;;;;;4978646;28;20270;-62
2023/05/24 03:36:32;;;;;;;15.15;10.50;;;12.20;99.90;;;;;;4978524;28;20065;-62
2023/05/24 03:38:58;;;;;;;18.42;10.25;;;12.20;99.90;;;;;;4978428;28;20062;-62
2023/05/24 03:41:26;;;;;;;19.13;10.98;;;12.20;99.90;;;;;;4978391;28;20089;-62
2023/05/24 03:43:52;;;;;;;18.60;11.20;;;12.30;99.90;;;;;;4995770;28;20056;-62
2023/05/24 03:46:19;;;;;;;27.70;11.70;;;12.30;99.90;;;;;;4978266;28;20040;-62
2023/05/24 03:48:47;;;;;;;16.73;11.43;;;12.30;99.90;;;;;;4978189;28;20054;-62
2023/05/24 03:51:13;;;;;;;17.48;10.63;;;12.20;99.90;;;;;;4995759;28;20030;-63
2023/05/24 03:53:39;;;;;;;15.82;11.18;;;12.20;99.90;;;;;;4978158;28;20045;-62
2023/05/24 03:56:05;;;;;;;16.98;10.82;;;12.20;99.90;;;;;;4978211;28;20713;-62
2023/05/24 03:58:31;;;;;;;17.98;10.82;;;12.20;99.90;;;;;;4978166;28;20080;-62
2023/05/24 04:00:57;;;;;;;17.60;11.18;;;12.20;99.90;;;;;;4995325;28;20121;-62
2023/05/24 04:03:24;;;;;;;22.67;11.45;;;12.20;99.90;;;;;;4978014;28;20064;-62
2023/05/24 04:05:51;;;;;;;23.55;10.95;;;12.30;99.90;;;;;;4978066;28;20030;-63
2023/05/24 04:08:17;;;;;;;14.07;10.48;;;12.30;99.90;;;;;;4977895;28;20109;-62
2023/05/24 04:10:43;;;;;;;14.20;10.82;;;12.40;99.90;;;;;;4977762;28;20038;-61
2023/05/24 04:13:10;;;;;;;20.15;11.43;;;12.40;99.90;;;;;;4977829;28;20026;-62
2023/05/24 04:15:36;;;;;;;21.38;12.40;;;12.60;99.90;;;;;;4995196;28;20050;-62
2023/05/24 04:18:04;;;;;;;22.23;13.45;;;12.60;99.90;;;;;;4977869;28;20037;-63
2023/05/24 04:20:30;;;;;;;21.77;14.13;;;12.70;99.90;;;;;;4977793;28;20031;-63
2023/05/24 04:22:56;;;;;;;20.92;14.85;;;12.80;99.90;;;;;;4977579;28;20065;-62
2023/05/24 04:25:22;;;;;;;27.38;14.15;;;12.80;99.90;;;;;;4977766;28;20034;-63
2023/05/24 04:27:49;;;;;;;27.58;14.18;;;13.00;99.90;;;;;;4977625;28;20038;-62
2023/05/24 04:30:15;;;;;;;22.58;14.32;;;13.00;99.90;;;;;;4995097;28;20058;-62
2023/05/24 04:32:43;;;;;;;23.60;13.10;;;13.10;99.90;;;;;;4977631;28;20026;-62
2023/05/24 04:35:10;;;;;;;25.27;15.45;;;13.20;99.90;;;;;;4977538;28;20029;-62
2023/05/24 04:37:36;;;;;;;23.80;13.95;;;13.30;99.90;;;;;;4994723;28;20052;-62
2023/05/24 04:40:04;;;;;;;29.05;13.50;;;13.40;99.90;;;;;;4977546;28;20121;-62
2023/05/24 04:42:32;;;;;;;23.45;13.93;;;13.50;99.90;;;;;;4994909;28;20081;-62
2023/05/24 04:44:59;;;;;;;23.33;14.77;;;13.60;99.90;;;;;;4994966;28;20037;-62
2023/05/24 04:47:25;;;;;;;38.13;17.90;;;13.80;99.90;;;;;;4994951;28;20112;-62
2023/05/24 04:49:52;;;;;;;36.70;19.02;;;13.80;99.90;;;;;;4994842;28;20076;-62
2023/05/24 04:52:18;;;;;;;39.00;19.58;;;13.90;99.90;;;;;;4995115;28;20034;-62
2023/05/24 04:54:44;;;;;;;35.22;17.90;;;14.00;99.90;;;;;;4995149;28;20030;-62
2023/05/24 04:57:10;;;;;;;37.40;19.42;;;14.10;99.90;;;;;;4994836;28;20026;-62
2023/05/24 04:59:36;;;;;;;55.30;21.80;;;14.20;99.90;;;;;;4994806;28;20034;-62
2023/05/24 05:02:02;;;;;;;40.08;21.58;;;14.30;99.90;;;;;;4994857;28;20034;-62
2023/05/24 05:04:28;;;;;;;44.90;21.52;;;14.20;99.90;;;;;;4994917;28;20031;-63
2023/05/24 05:06:54;;;;;;;40.15;19.67;;;14.30;99.90;;;;;;4994776;28;20034;-63
2023/05/24 05:09:21;;;;;;;42.50;20.80;;;14.30;99.90;;;;;;4994618;28;20034;-62
2023/05/24 05:11:47;;;;;;;48.08;23.90;;;14.60;99.90;;;;;;4994652;28;20027;-62
2023/05/24 05:14:13;;;;;;;48.38;21.52;;;14.70;99.90;;;;;;4994837;28;20037;-63
2023/05/24 05:16:40;;;;;;;47.55;21.38;;;14.80;99.90;;;;;;4994742;28;20033;-62
2023/05/24 05:19:06;;;;;;;53.08;23.50;;;14.90;99.90;;;;;;4994280;28;20077;-63
2023/05/24 05:21:32;;;;;;;40.00;20.15;;;15.10;99.90;;;;;;4995240;28;20026;-63
2023/05/24 05:24:02;;;;;;;35.10;18.27;;;15.30;99.90;;;;;;4995224;28;20042;-62
2023/05/24 05:26:29;;;;;;;32.88;17.30;;;15.40;99.90;;;;;;4993987;28;20034;-62
2023/05/24 05:28:56;;;;;;;31.83;17.17;;;15.60;99.90;;;;;;4994547;28;20026;-62
2023/05/24 05:31:28;;;;;;;34.20;19.00;;;15.60;99.90;;;;;;4994451;28;20034;-63
2023/05/24 05:33:54;;;;;;;38.13;18.48;;;15.80;99.90;;;;;;4991482;28;20040;-63
2023/05/24 05:36:20;;;;;;;38.55;18.65;;;15.90;99.90;;;;;;4992838;28;20026;-62
2023/05/24 05:38:46;;;;;;;51.45;20.65;;;16.00;99.90;;;;;;4993749;28;20034;-62
2023/05/24 05:41:12;;;;;;;45.95;18.73;;;16.20;99.90;;;;;;4992938;28;20038;-63
2023/05/24 05:43:38;;;;;;;51.58;20.85;;;16.30;99.90;;;;;;4993972;28;20054;-62
2023/05/24 05:46:04;;;;;;;51.72;21.33;;;16.40;99.90;;;;;;4994264;28;20435;-63
2023/05/24 05:48:31;;;;;;;51.95;21.30;;;16.50;99.90;;;;;;4994114;28;20106;-63
2023/05/24 05:50:57;;;;;;;60.03;24.65;;;16.60;99.90;;;;;;4996260;28;20023;-63
2023/05/24 05:53:23;;;;;;;39.45;22.55;;;16.80;99.90;;;;;;4997670;28;20469;-63
2023/05/24 05:55:49;;;;;;;41.60;20.20;;;17.00;99.90;;;;;;4997539;28;20054;-63
2023/05/24 05:58:15;;;;;;;47.08;21.25;;;17.10;99.90;;;;;;4997758;28;20498;-63
2023/05/24 06:00:41;;;;;;;58.40;24.88;;;17.30;99.90;;;;;;4998028;28;20531;-63
2023/05/24 06:03:07;;;;;;;45.22;23.00;;;17.30;99.90;;;;;;4997438;28;20110;-63
2023/05/24 06:05:33;;;;;;;57.72;25.02;;;17.50;99.90;;;;;;4997461;28;20121;-63
2023/05/24 06:07:59;;;;;;;56.40;26.52;;;17.70;99.90;;;;;;4997367;28;20030;-63
2023/05/24 06:10:26;;;;;;;59.20;27.30;;;17.80;99.90;;;;;;4997041;28;20677;-63
2023/05/24 06:13:05;;;;;;;55.10;25.38;;;17.80;99.90;;;;;;4997379;28;20027;-63
2023/05/24 06:15:32;;;;;;;66.82;26.52;;;17.90;99.90;;;;;;4997297;28;20388;-63
2023/05/24 06:18:00;;;;;;;55.65;25.48;;;18.10;99.90;;;;;;4997550;28;20088;-63
2023/05/24 06:20:25;;;;;;;54.03;26.17;;;18.30;99.90;;;;;;4997449;28;20042;-63
2023/05/24 06:22:51;;;;;;;53.72;26.20;;;18.30;99.90;;;;;;4997014;28;20048;-63
2023/05/24 06:25:19;;;;;;;57.38;28.33;;;18.50;99.90;;;;;;4997280;28;20383;-63
2023/05/24 06:27:48;;;;;;;56.03;28.30;;;18.40;99.90;;;;;;4997132;28;20030;-63
2023/05/24 06:30:14;;;;;;;49.15;28.08;;;18.70;99.90;;;;;;4996985;28;20030;-63
2023/05/24 06:32:41;;;;;;;55.08;28.17;;;19.00;99.90;;;;;;4996932;28;20060;-63
2023/05/24 06:35:07;;;;;;;49.70;25.08;;;19.20;99.90;;;;;;4996806;28;20030;-63
2023/05/24 06:37:33;;;;;;;39.50;23.98;;;19.40;99.90;;;;;;4997254;28;20069;-63
2023/05/24 06:39:59;;;;;;;46.72;24.30;;;19.60;99.90;;;;;;4997999;28;20026;-62
2023/05/24 06:42:25;;;;;;;716.58;180.68;;;19.80;99.90;;;;;;4997515;28;20126;-62
2023/05/24 06:44:51;;;;;;;90.32;32.67;;;19.90;99.90;;;;;;4997332;28;20461;-62
2023/05/24 06:47:17;;;;;;;134.75;40.08;;;20.10;99.90;;;;;;4980138;28;20081;-63
2023/05/24 06:49:43;;;;;;;48.85;23.00;;;20.30;99.90;;;;;;4996972;28;20062;-63
2023/05/24 06:52:09;;;;;;;40.75;22.83;;;20.50;99.90;;;;;;4979117;28;20025;-62
2023/05/24 06:54:35;;;;;;;33.38;20.83;;;20.70;99.90;;;;;;4996928;28;20022;-62
2023/05/24 06:57:02;;;;;;;45.03;29.27;;;20.90;99.90;;;;;;4978657;28;20026;-63
2023/05/24 06:59:28;;;;;;;43.67;22.00;;;21.00;99.90;;;;;;4996317;28;20037;-62
2023/05/24 07:01:56;;;;;;;38.78;18.98;;;21.20;99.90;;;;;;4996739;28;20402;-63
2023/05/24 07:04:25;;;;;;;32.20;17.67;;;21.30;99.90;;;;;;4996521;28;20041;-62
2023/05/24 07:06:51;;;;;;;25.52;15.00;;;21.60;99.90;;;;;;4996289;28;20030;-63
2023/05/24 07:09:20;;;;;;;26.70;15.93;;;21.70;99.90;;;;;;4996240;28;20476;-63
2023/05/24 07:11:47;;;;;;;28.73;15.15;;;22.00;99.90;;;;;;4978772;28;20057;-63
2023/05/24 07:14:13;;;;;;;27.05;14.70;;;22.10;99.90;;;;;;4996187;28;20504;-63
2023/05/24 07:16:38;;;;;;;28.92;16.88;;;22.30;99.30;;;;;;4996407;28;20061;-63
2023/05/24 07:19:05;;;;;;;35.33;16.15;;;22.10;99.00;;;;;;4996115;28;20113;-63
2023/05/24 07:21:31;;;;;;;25.45;12.98;;;22.40;99.70;;;;;;4996151;28;20030;-63
2023/05/24 07:23:56;;;;;;;26.05;12.85;;;22.50;97.80;;;;;;4996216;28;20045;-63
2023/05/24 07:26:22;;;;;;;18.30;11.82;;;22.40;97.30;;;;;;4995644;28;20030;-63
2023/05/24 07:28:48;;;;;;;24.63;13.68;;;22.50;97.20;;;;;;4996059;28;20499;-63
2023/05/24 07:31:15;;;;;;;20.17;10.73;;;22.80;99.00;;;;;;4996157;28;20112;-63
2023/05/24 07:33:41;;;;;;;15.32;9.70;;;23.20;97.60;;;;;;4995854;28;20026;-63
2023/05/24 07:36:07;;;;;;;14.52;9.35;;;23.50;96.10;;;;;;4995874;28;20033;-63
2023/05/24 07:38:34;;;;;;;18.02;9.55;;;23.80;94.90;;;;;;4995756;28;20050;-62
2023/05/24 07:41:05;;;;;;;14.68;9.13;;;24.30;92.50;;;;;;4995655;28;20022;-63
2023/05/24 07:43:31;;;;;;;17.75;8.55;;;24.60;92.30;;;;;;4995911;28;20046;-63
2023/05/24 07:45:57;;;;;;;12.68;8.00;;;24.80;89.50;;;;;;4995640;28;20028;-63
2023/05/24 07:48:23;;;;;;;18.35;8.85;;;25.10;88.60;;;;;;4995429;28;20079;-63
2023/05/24 07:50:51;;;;;;;14.95;8.20;;;24.50;87.70;;;;;;4995646;28;20031;-63
2023/05/24 07:53:18;;;;;;;20.65;9.25;;;25.00;90.50;;;;;;5007603;28;20026;-63
2023/05/24 07:55:45;;;;;;;13.95;7.38;;;25.40;84.10;;;;;;5014828;28;20383;-64
2023/05/24 07:58:10;;;;;;;12.88;7.68;;;25.70;81.60;;;;;;5015448;28;20034;-63
2023/05/24 08:00:37;;;;;;;11.55;7.32;;;25.90;79.70;;;;;;5014846;28;20083;-63
2023/05/24 08:03:04;;;;;;;16.27;7.35;;;26.00;78.90;;;;;;5014433;28;20490;-63
2023/05/24 08:05:30;;;;;;;12.73;7.65;;;26.30;75.50;;;;;;5015006;28;20089;-63
2023/05/24 08:07:56;;;;;;;13.27;7.22;;;25.60;75.60;;;;;;5014846;28;20037;-63
2023/05/24 08:10:23;;;;;;;10.30;6.30;;;25.00;78.70;;;;;;5014541;28;20045;-64
2023/05/24 08:12:53;;;;;;;26.80;8.80;;;26.00;82.90;;;;;;5014488;28;20476;-64
2023/05/24 08:15:19;;;;;;;11.40;6.63;;;26.20;76.40;;;;;;5014857;28;20096;-64
2023/05/24 08:17:45;;;;;;;12.93;6.90;;;26.20;72.60;;;;;;5014766;28;20477;-64
2023/05/24 08:20:13;;;;;;;24.17;7.97;;;26.50;74.90;;;;;;5014597;28;20072;-64
2023/05/24 08:22:39;;;;;;;13.45;7.47;;;26.80;72.80;;;;;;5014632;28;20372;-64
2023/05/24 08:25:06;;;;;;;14.82;7.80;;;27.10;72.10;;;;;;5014601;28;20030;-64
2023/05/24 08:27:31;;;;;;;7.20;6.40;;;27.70;73.30;;;;;;4999470;28;20081;-63
2023/05/24 08:29:58;;;;;;;30.58;9.02;;;27.90;69.80;;;;;;4994846;28;20030;-64
2023/05/24 08:32:24;;;;;;;12.50;6.75;;;28.30;67.70;;;;;;4994468;28;20030;-64
2023/05/24 08:34:50;;;;;;;8.88;6.20;;;28.20;67.50;;;;;;4994895;28;20065;-64
2023/05/24 08:37:19;;;;;;;10.43;7.03;;;28.20;67.20;;;;;;4994867;28;20061;-64
2023/05/24 08:39:45;;;;;;;7.97;6.35;;;28.50;64.70;;;;;;4994767;28;20030;-64
2023/05/24 08:42:12;;;;;;;15.85;7.28;;;28.20;61.70;;;;;;4994835;28;20351;-64
2023/05/24 08:45:01;;;;;;;12.20;6.47;;;28.10;65.30;;;;;;4994671;28;20365;-63
2023/05/24 08:47:29;;;;;;;9.52;6.13;;;28.80;64.50;;;;;;4994348;28;20381;-63
2023/05/24 08:49:56;;;;;;;9.88;6.03;;;28.90;59.60;;;;;;4994418;28;20109;-64
2023/05/24 08:52:22;;;;;;;29.90;12.48;;;28.90;59.80;;;;;;4994641;28;20045;-64
2023/05/24 08:54:50;;;;;;;17.50;9.25;;;28.60;60.10;;;;;;4994784;28;20022;-64
2023/05/24 08:57:17;;;;;;;19.13;9.48;;;28.10;60.70;;;;;;4994779;28;20506;-64
2023/05/24 08:59:43;;;;;;;16.65;7.47;;;27.70;63.70;;;;;;4994935;28;20101;-64
2023/05/24 09:02:13;;;;;;;9.40;6.45;;;27.70;67.30;;;;;;4994654;28;20260;-64
2023/05/24 09:04:40;;;;;;;9.00;6.28;;;27.70;63.40;;;;;;4994844;28;20476;-64
2023/05/24 09:07:11;;;;;;;7.93;5.50;;;27.30;65.10;;;;;;4994665;28;20045;-64
2023/05/24 09:09:43;;;;;;;10.73;6.20;;;28.20;63.50;;;;;;4994319;28;20076;-64
2023/05/24 09:12:13;;;;;;;11.40;6.45;;;28.70;63.30;;;;;;4994737;28;20361;-64
2023/05/24 09:14:45;;;;;;;8.68;6.53;;;29.10;63.00;;;;;;4994429;28;20072;-64
2023/05/24 09:17:15;;;;;;;11.35;5.72;;;29.00;62.30;;;;;;4994487;28;20054;-64
2023/05/24 09:19:46;;;;;;;6.20;5.60;;;28.10;62.90;;;;;;4994771;28;20034;-64
2023/05/24 09:22:13;;;;;;;11.15;6.22;;;28.50;63.10;;;;;;4994510;28;20026;-64
2023/05/24 09:24:46;;;;;;;10.85;5.70;;;28.60;61.40;;;;;;4996582;28;20092;-64
2023/05/24 09:27:15;;;;;;;9.75;5.45;;;28.30;59.90;;;;;;4997710;28;20030;-64
2023/05/24 09:29:44;;;;;;;9.50;5.60;;;28.60;59.20;;;;;;4998030;28;20026;-64
2023/05/24 09:32:14;;;;;;;9.32;5.72;;;28.50;61.40;;;;;;4997851;28;20263;-64
2023/05/24 09:34:41;;;;;;;12.10;6.07;;;28.90;60.60;;;;;;4998124;28;20045;-64
2023/05/24 09:37:20;;;;;;;14.38;6.60;;;29.10;60.30;;;;;;4998212;28;20105;-64
2023/05/24 09:39:47;;;;;;;17.23;6.25;;;29.40;62.00;;;;;;4998111;28;20041;-63
2023/05/24 09:42:25;;;;;;;15.63;5.88;;;29.80;61.20;;;;;;4997852;28;20050;-64
2023/05/24 09:45:07;;;;;;;15.27;9.80;;;29.80;60.00;;;;;;4998049;28;20038;-64
2023/05/24 09:47:35;;;;;;;15.32;8.10;;;29.20;57.90;;;;;;4997852;28;20049;-64
2023/05/24 09:50:02;;;;;;;15.02;6.82;;;28.70;58.70;;;;;;4997816;28;20080;-64
2023/05/24 09:52:28;;;;;;;12.27;5.70;;;27.30;62.00;;;;;;4997900;28;20038;-64
2023/05/24 09:54:54;;;;;;;13.88;6.50;;;27.80;63.80;;;;;;4997788;28;20026;-64
2023/05/24 09:57:24;;;;;;;8.15;5.53;;;27.70;62.40;;;;;;4997666;28;20472;-64
2023/05/24 09:59:51;;;;;;;9.55;5.07;;;28.20;61.00;;;;;;4997804;28;20030;-64
2023/05/24 10:02:21;;;;;;;9.30;5.32;;;28.80;61.60;;;;;;4997538;28;20034;-64
2023/05/24 10:04:47;;;;;;;26.25;8.77;;;28.90;60.10;;;;;;4997444;28;20107;-64
2023/05/24 10:07:15;;;;;;;16.88;6.55;;;28.40;59.80;;;;;;4997665;28;20076;-64
2023/05/24 10:09:43;;;;;;;13.70;6.15;;;28.00;62.60;;;;;;4997301;28;20034;-64
2023/05/24 10:12:09;;;;;;;13.15;7.22;;;27.70;61.10;;;;;;4997304;28;20026;-63
2023/05/24 10:14:37;;;;;;;11.80;6.13;;;28.40;63.50;;;;;;4997514;28;20033;-64
2023/05/24 10:17:04;;;;;;;10.75;6.28;;;28.60;60.40;;;;;;4997306;28;20183;-64
2023/05/24 10:19:34;;;;;;;7.07;5.22;;;28.50;58.20;;;;;;4997214;28;20030;-64
2023/05/24 10:22:05;;;;;;;10.25;5.75;;;28.10;58.70;;;;;;4997252;28;20054;-64
2023/05/24 10:24:49;;;;;;;8.80;5.43;;;27.50;59.30;;;;;;4997267;28;20031;-64
2023/05/24 10:27:20;;;;;;;9.05;6.35;;;27.60;59.90;;;;;;4996412;28;20030;-64
2023/05/24 10:29:46;;;;;;;9.55;5.43;;;27.30;59.10;;;;;;4995208;28;20034;-64
2023/05/24 10:32:15;;;;;;;9.93;5.78;;;27.70;61.30;;;;;;4996698;28;20034;-65
2023/05/24 10:34:42;;;;;;;12.32;5.63;;;27.80;61.80;;;;;;4996524;28;20432;-64
2023/05/24 10:37:08;;;;;;;9.85;5.00;;;28.10;59.40;;;;;;4996457;28;21164;-64
2023/05/24 10:39:34;;;;;;;14.85;6.45;;;27.90;61.20;;;;;;4996598;28;20061;-64
2023/05/24 10:42:05;;;;;;;31.45;9.18;;;28.20;60.40;;;;;;4995047;28;20056;-64
2023/05/24 10:44:31;;;;;;;30.92;10.48;;;28.10;59.70;;;;;;4980851;28;20488;-64
2023/05/24 10:47:11;;;;;;;12.35;7.28;;;27.90;60.50;;;;;;4996697;28;20030;-64
2023/05/24 10:49:38;;;;;;;9.43;5.45;;;28.20;63.30;;;;;;4996625;28;20037;-64
2023/05/24 10:52:09;;;;;;;20.95;7.07;;;27.80;61.70;;;;;;4996425;28;20034;-64
2023/05/24 10:54:38;;;;;;;8.45;5.45;;;27.90;62.00;;;;;;4996636;28;20057;-64
2023/05/24 10:57:06;;;;;;;7.25;5.32;;;27.90;62.10;;;;;;4996590;28;20023;-64
2023/05/24 10:59:37;;;;;;;19.33;6.97;;;28.50;60.40;;;;;;4996725;28;20035;-64
2023/05/24 11:02:15;;;;;;;15.82;11.05;;;28.30;61.30;;;;;;4996730;28;20448;-64
2023/05/24 11:04:45;;;;;;;12.95;5.95;;;28.20;61.00;;;;;;4996523;28;20460;-64
2023/05/24 11:07:14;;;;;;;7.32;5.57;;;28.20;60.90;;;;;;4996382;28;20496;-64
2023/05/24 11:09:51;;;;;;;13.85;6.72;;;28.10;59.40;;;;;;4996247;28;20023;-64
2023/05/24 11:12:19;;;;;;;12.77;5.53;;;28.50;61.30;;;;;;4996632;28;20022;-64
2023/05/24 11:14:51;;;;;;;12.95;6.45;;;28.20;61.80;;;;;;4996390;28;20033;-64
2023/05/24 11:17:22;;;;;;;9.95;5.70;;;28.10;60.40;;;;;;4995154;28;20042;-64
2023/05/24 11:19:54;;;;;;;18.85;6.22;;;28.40;60.50;;;;;;4996068;28;20031;-64
2023/05/24 11:22:22;;;;;;;7.50;5.40;;;28.20;59.70;;;;;;4996245;28;20041;-64
2023/05/24 11:24:48;;;;;;;9.27;4.82;;;28.90;58.80;;;;;;4996091;28;20380;-64
2023/05/24 11:27:14;;;;;;;10.52;5.45;;;28.70;57.50;;;;;;4996084;28;20507;-64
2023/05/24 11:29:42;;;;;;;11.13;5.47;;;29.10;57.10;;;;;;4995801;28;20480;-64
2023/05/24 11:32:08;;;;;;;8.27;4.65;;;29.00;56.10;;;;;;4995984;28;20031;-64
2023/05/24 11:34:34;;;;;;;14.27;5.70;;;28.90;57.50;;;;;;4994510;28;20038;-64
2023/05/24 11:37:01;;;;;;;11.38;5.55;;;27.80;58.40;;;;;;4995657;28;20037;-64
2023/05/24 11:39:32;;;;;;;8.00;4.82;;;28.40;57.70;;;;;;4996146;28;20022;-64
2023/05/24 11:42:00;;;;;;;8.23;5.47;;;28.40;56.90;;;;;;4995773;28;20034;-64
2023/05/24 11:44:30;;;;;;;19.38;6.82;;;28.00;58.00;;;;;;4995503;28;20085;-64
2023/05/24 11:46:57;;;;;;;;;;;28.40;59.10;;;;;;5000233;28;20576;-64
2023/05/24 11:49:23;;;;;;;19.77;6.32;;;28.60;56.70;;;;;;5015107;28;20345;-64
2023/05/24 11:51:48;;;;;;;9.75;4.93;;;29.30;57.80;;;;;;5014913;28;20108;-64
2023/05/24 11:54:18;;;;;;;7.47;4.38;;;29.30;55.80;;;;;;5015166;28;20072;-64
2023/05/24 11:56:44;;;;;;;6.63;5.63;;;29.50;54.90;;;;;;5014899;28;20388;-64
2023/05/24 11:59:37;;;;;;;13.32;6.25;;;30.10;53.70;;;;;;5014957;28;20036;-64
2023/05/24 12:02:09;;;;;;;7.35;5.03;;;29.30;56.40;;;;;;5012222;28;20053;-64
2023/05/24 12:04:35;;;;;;;13.80;5.40;;;29.40;54.40;;;;;;5010060;28;20066;-64
2023/05/24 12:07:02;;;;;;;11.65;5.72;;;28.90;56.60;;;;;;4995304;28;20030;-64
2023/05/24 12:09:28;;;;;;;12.90;6.05;;;27.80;57.00;;;;;;4994452;28;20030;-64
2023/05/24 12:11:54;;;;;;;12.40;5.60;;;28.50;58.10;;;;;;4995090;28;20073;-64
2023/05/24 12:14:26;;;;;;;10.27;5.00;;;28.90;59.40;;;;;;4995022;28;20030;-64
2023/05/24 12:16:57;;;;;;;11.57;4.60;;;28.90;60.60;;;;;;4994998;28;20026;-65
2023/05/24 12:19:25;;;;;;;11.20;5.85;;;28.90;54.80;;;;;;4994954;28;20026;-64
2023/05/24 12:21:57;;;;;;;12.88;5.82;;;29.60;56.70;;;;;;4995091;28;20032;-65
2023/05/24 12:24:25;;;;;;;8.95;4.95;;;29.50;54.90;;;;;;4994811;28;20038;-64
2023/05/24 12:26:56;;;;;;;7.68;5.15;;;28.10;56.10;;;;;;4994856;28;20531;-64
2023/05/24 12:29:22;;;;;;;7.97;4.80;;;28.70;58.20;;;;;;4995118;28;20038;-65
2023/05/24 12:31:49;;;;;;;6.60;4.95;;;29.00;57.10;;;;;;4995117;28;20030;-64
2023/05/24 12:34:17;;;;;;;13.65;6.32;;;29.20;56.80;;;;;;4994806;28;20376;-65
2023/05/24 12:36:44;;;;;;;9.88;4.97;;;28.40;58.80;;;;;;4994964;28;20023;-65
2023/05/24 12:39:31;;;;;;;10.10;5.15;;;28.00;58.00;;;;;;4994717;28;20031;-64